sensor_id;sensor_type;location;lat;lon;timestamp;temperature;humidity
15452;DHT22;7827;53.594;9.938;2024-01-25T00:00:28;7.70;1.00
15452;DHT22;7827;53.594;9.938;2024-01-25T00:02:57;7.70;1.00
15452;DHT22;7827;53.594;9.938;2024-01-25T00:05:27;7.70;1.00
15452;DHT22;7827;53.594;9.938;2024-01-25T00:07:56;7.70;1.00
15452;DHT22;7827;53.594;9.938;2024-01-25T00:10:24;7.70;1.00
15452;DHT22;7827;53.594;9.938;2024-01-25T00:12:52;7.70;1.00
15452;DHT22;7827;53.594;9.938;2024-01-25T00:15:21;7.60;1.00
15452;DHT22;7827;53.594;9.938;2024-01-25T00:17:49;7.60;1.00
15452;DHT22;7827;53.594;9.938;2024-01-25T00:20:17;7.60;1.00
15452;DHT22;7827;53.594;9.938;2024-01-25T00:22:47;7.60;1.00
15452;DHT22;7827;53.594;9.938;2024-01-25T00:25:15;7.60;1.00
15452;DHT22;7827;53.594;9.938;2024-01-25T00:27:44;7.50;1.00
15452;DHT22;7827;53.594;9.938;2024-01-25T00:30:14;7.60;1.00
15452;DHT22;7827;53.594;9.938;2024-01-25T00:32:42;7.60;1.00
15452;DHT22;7827;53.594;9.938;2024-01-25T00:35:12;7.60;1.00
15452;DHT22;7827;53.594;9.938;2024-01-25T00:37:41;7.60;1.00
15452;DHT22;7827;53.594;9.938;2024-01-25T00:40:12;7.60;1.00
15452;DHT22;7827;53.594;9.938;2024-01-25T00:42:42;7.60;99.90
15452;DHT22;7827;53.594;9.938;2024-01-25T00:45:12;7.60;54.30
15452;DHT22;7827;53.594;9.938;2024-01-25T00:47:41;7.60;90.10
15452;DHT22;7827;53.594;9.938;2024-01-25T00:50:10;7.60;40.20
15452;DHT22;7827;53.594;9.938;2024-01-25T00:52:39;7.60;14.10
15452;DHT22;7827;53.594;9.938;2024-01-25T00:55:09;7.60;1.00
15452;DHT22;7827;53.594;9.938;2024-01-25T00:57:39;7.60;1.00
15452;DHT22;7827;53.594;9.938;2024-01-25T01:00:08;7.60;71.10
15452;DHT22;7827;53.594;9.938;2024-01-25T01:02:40;7.60;56.80
15452;DHT22;7827;53.594;9.938;2024-01-25T01:05:11;7.60;1.20
15452;DHT22;7827;53.594;9.938;2024-01-25T01:07:40;7.60;97.10
15452;DHT22;7827;53.594;9.938;2024-01-25T01:10:09;7.60;99.90
15452;DHT22;7827;53.594;9.938;2024-01-25T01:12:39;7.60;50.50
15452;DHT22;7827;53.594;9.938;2024-01-25T01:15:08;7.60;97.80
15452;DHT22;7827;53.594;9.938;2024-01-25T01:17:36;7.60;99.90
15452;DHT22;7827;53.594;9.938;2024-01-25T01:20:05;7.60;99.90
15452;DHT22;7827;53.594;9.938;2024-01-25T01:22:34;7.60;99.60
15452;DHT22;7827;53.594;9.938;2024-01-25T01:25:02;7.60;99.90
15452;DHT22;7827;53.594;9.938;2024-01-25T01:27:30;7.60;1.00
15452;DHT22;7827;53.594;9.938;2024-01-25T01:30:00;7.50;99.90
15452;DHT22;7827;53.594;9.938;2024-01-25T01:32:28;7.50;99.90
15452;DHT22;7827;53.594;9.938;2024-01-25T01:34:56;7.50;99.90
15452;DHT22;7827;53.594;9.938;2024-01-25T01:37:25;7.50;99.90
15452;DHT22;7827;53.594;9.938;2024-01-25T01:39:53;7.50;99.90
15452;DHT22;7827;53.594;9.938;2024-01-25T01:42:22;7.40;99.90
15452;DHT22;7827;53.594;9.938;2024-01-25T01:44:52;7.40;99.90
15452;DHT22;7827;53.594;9.938;2024-01-25T01:47:22;7.40;99.90
15452;DHT22;7827;53.594;9.938;2024-01-25T01:49:50;7.40;99.90
15452;DHT22;7827;53.594;9.938;2024-01-25T01:52:19;7.40;99.90
15452;DHT22;7827;53.594;9.938;2024-01-25T01:54:48;7.50;99.90
15452;DHT22;7827;53.594;9.938;2024-01-25T01:57:16;7.50;99.90
15452;DHT22;7827;53.594;9.938;2024-01-25T01:59:45;7.50;99.90
15452;DHT22;7827;53.594;9.938;2024-01-25T02:02:16;7.50;99.90
15452;DHT22;7827;53.594;9.938;2024-01-25T02:04:46;7.50;99.90
15452;DHT22;7827;53.594;9.938;2024-01-25T02:07:14;7.50;99.90
15452;DHT22;7827;53.594;9.938;2024-01-25T02:09:43;7.50;99.90
15452;DHT22;7827;53.594;9.938;2024-01-25T02:12:15;7.50;99.90
15452;DHT22;7827;53.594;9.938;2024-01-25T02:14:44;7.50;99.90
15452;DHT22;7827;53.594;9.938;2024-01-25T02:17:12;7.50;99.90
15452;DHT22;7827;53.594;9.938;2024-01-25T02:19:40;7.50;99.90
15452;DHT22;7827;53.594;9.938;2024-01-25T02:22:10;7.50;99.90
15452;DHT22;7827;53.594;9.938;2024-01-25T02:24:40;7.50;99.90
15452;DHT22;7827;53.594;9.938;2024-01-25T02:27:08;7.50;99.90
15452;DHT22;7827;53.594;9.938;2024-01-25T02:29:36;7.60;99.90
15452;DHT22;7827;53.594;9.938;2024-01-25T02:32:05;7.60;99.90
15452;DHT22;7827;53.594;9.938;2024-01-25T02:34:33;7.60;99.90
15452;DHT22;7827;53.594;9.938;2024-01-25T02:37:02;7.60;99.90
15452;DHT22;7827;53.594;9.938;2024-01-25T02:39:30;7.60;99.90
15452;DHT22;7827;53.594;9.938;2024-01-25T02:42:00;7.60;99.90
15452;DHT22;7827;53.594;9.938;2024-01-25T02:44:28;7.60;99.90
15452;DHT22;7827;53.594;9.938;2024-01-25T02:46:56;7.70;99.90
15452;DHT22;7827;53.594;9.938;2024-01-25T02:49:25;7.60;99.90
15452;DHT22;7827;53.594;9.938;2024-01-25T02:51:53;7.60;99.90
15452;DHT22;7827;53.594;9.938;2024-01-25T02:54:21;7.60;99.90
15452;DHT22;7827;53.594;9.938;2024-01-25T02:56:50;7.60;99.90
15452;DHT22;7827;53.594;9.938;2024-01-25T02:59:19;7.60;99.90
15452;DHT22;7827;53.594;9.938;2024-01-25T03:01:48;7.60;99.90
15452;DHT22;7827;53.594;9.938;2024-01-25T03:04:17;7.60;99.90
15452;DHT22;7827;53.594;9.938;2024-01-25T03:06:45;7.60;99.90
15452;DHT22;7827;53.594;9.938;2024-01-25T03:09:14;7.60;99.90
15452;DHT22;7827;53.594;9.938;2024-01-25T03:11:42;7.60;99.90
15452;DHT22;7827;53.594;9.938;2024-01-25T03:14:10;7.50;99.90
15452;DHT22;7827;53.594;9.938;2024-01-25T03:16:39;7.50;99.90
15452;DHT22;7827;53.594;9.938;2024-01-25T03:19:07;7.50;99.90
15452;DHT22;7827;53.594;9.938;2024-01-25T03:21:36;7.50;99.90
15452;DHT22;7827;53.594;9.938;2024-01-25T03:24:05;7.50;99.90
15452;DHT22;7827;53.594;9.938;2024-01-25T03:26:33;7.50;99.90
15452;DHT22;7827;53.594;9.938;2024-01-25T03:29:01;7.50;99.90
15452;DHT22;7827;53.594;9.938;2024-01-25T03:31:30;7.50;99.90
15452;DHT22;7827;53.594;9.938;2024-01-25T03:33:59;7.60;99.90
15452;DHT22;7827;53.594;9.938;2024-01-25T03:36:28;7.60;99.90
15452;DHT22;7827;53.594;9.938;2024-01-25T03:38:56;7.40;99.90
15452;DHT22;7827;53.594;9.938;2024-01-25T03:41:24;7.60;99.90
15452;DHT22;7827;53.594;9.938;2024-01-25T03:43:52;7.60;99.90
15452;DHT22;7827;53.594;9.938;2024-01-25T03:46:21;7.60;99.90
15452;DHT22;7827;53.594;9.938;2024-01-25T03:48:49;7.50;99.90
15452;DHT22;7827;53.594;9.938;2024-01-25T03:51:19;7.50;99.90
15452;DHT22;7827;53.594;9.938;2024-01-25T03:53:47;7.60;99.90
15452;DHT22;7827;53.594;9.938;2024-01-25T03:56:15;7.60;1.00
15452;DHT22;7827;53.594;9.938;2024-01-25T03:58:44;7.60;99.90
15452;DHT22;7827;53.594;9.938;2024-01-25T04:01:12;7.60;99.90
15452;DHT22;7827;53.594;9.938;2024-01-25T04:03:41;7.60;1.00
15452;DHT22;7827;53.594;9.938;2024-01-25T04:06:09;7.60;99.90
15452;DHT22;7827;53.594;9.938;2024-01-25T04:08:39;7.60;1.00
15452;DHT22;7827;53.594;9.938;2024-01-25T04:11:07;7.70;1.00
15452;DHT22;7827;53.594;9.938;2024-01-25T04:13:36;7.60;1.00
15452;DHT22;7827;53.594;9.938;2024-01-25T04:16:05;7.60;1.00
15452;DHT22;7827;53.594;9.938;2024-01-25T04:18:33;7.60;1.00
15452;DHT22;7827;53.594;9.938;2024-01-25T04:21:01;7.60;1.00
15452;DHT22;7827;53.594;9.938;2024-01-25T04:23:29;7.60;1.00
15452;DHT22;7827;53.594;9.938;2024-01-25T04:25:59;7.60;1.00
15452;DHT22;7827;53.594;9.938;2024-01-25T04:28:27;7.70;99.90
15452;DHT22;7827;53.594;9.938;2024-01-25T04:30:55;7.60;99.90
15452;DHT22;7827;53.594;9.938;2024-01-25T04:33:24;7.60;1.00
15452;DHT22;7827;53.594;9.938;2024-01-25T04:35:52;7.60;1.00
15452;DHT22;7827;53.594;9.938;2024-01-25T04:38:20;7.60;1.00
15452;DHT22;7827;53.594;9.938;2024-01-25T04:40:48;7.60;1.00
15452;DHT22;7827;53.594;9.938;2024-01-25T04:43:18;7.50;1.00
15452;DHT22;7827;53.594;9.938;2024-01-25T04:45:46;7.50;1.00
15452;DHT22;7827;53.594;9.938;2024-01-25T04:48:14;7.50;1.00
15452;DHT22;7827;53.594;9.938;2024-01-25T04:50:43;7.50;1.00
15452;DHT22;7827;53.594;9.938;2024-01-25T04:53:11;7.50;1.00
15452;DHT22;7827;53.594;9.938;2024-01-25T04:55:39;7.50;1.00
15452;DHT22;7827;53.594;9.938;2024-01-25T04:58:07;7.50;1.00
15452;DHT22;7827;53.594;9.938;2024-01-25T05:00:37;7.50;1.00
15452;DHT22;7827;53.594;9.938;2024-01-25T05:03:06;7.50;1.00
15452;DHT22;7827;53.594;9.938;2024-01-25T05:05:35;7.50;1.00
15452;DHT22;7827;53.594;9.938;2024-01-25T05:08:03;7.50;1.00
15452;DHT22;7827;53.594;9.938;2024-01-25T05:10:32;7.40;1.00
15452;DHT22;7827;53.594;9.938;2024-01-25T05:13:00;7.40;1.00
15452;DHT22;7827;53.594;9.938;2024-01-25T05:15:28;7.40;1.00
15452;DHT22;7827;53.594;9.938;2024-01-25T05:17:58;7.40;1.00
15452;DHT22;7827;53.594;9.938;2024-01-25T05:20:27;7.40;1.00
15452;DHT22;7827;53.594;9.938;2024-01-25T05:22:59;7.40;1.00
15452;DHT22;7827;53.594;9.938;2024-01-25T05:25:28;7.30;1.00
15452;DHT22;7827;53.594;9.938;2024-01-25T05:27:57;7.30;1.00
15452;DHT22;7827;53.594;9.938;2024-01-25T05:30:26;7.30;1.00
15452;DHT22;7827;53.594;9.938;2024-01-25T05:32:55;7.20;1.00
15452;DHT22;7827;53.594;9.938;2024-01-25T05:35:24;7.20;81.10
15452;DHT22;7827;53.594;9.938;2024-01-25T05:37:53;7.30;26.10
15452;DHT22;7827;53.594;9.938;2024-01-25T05:40:21;7.30;29.80
15452;DHT22;7827;53.594;9.938;2024-01-25T05:42:50;7.30;18.70
15452;DHT22;7827;53.594;9.938;2024-01-25T05:45:21;7.20;47.00
15452;DHT22;7827;53.594;9.938;2024-01-25T05:47:50;7.20;99.90
15452;DHT22;7827;53.594;9.938;2024-01-25T05:50:18;7.20;99.90
15452;DHT22;7827;53.594;9.938;2024-01-25T05:52:48;7.10;99.90
15452;DHT22;7827;53.594;9.938;2024-01-25T05:55:16;7.10;99.90
15452;DHT22;7827;53.594;9.938;2024-01-25T05:57:45;7.10;99.90
15452;DHT22;7827;53.594;9.938;2024-01-25T06:00:14;7.20;99.90
15452;DHT22;7827;53.594;9.938;2024-01-25T06:02:48;7.10;99.90
15452;DHT22;7827;53.594;9.938;2024-01-25T06:05:16;7.10;99.90
15452;DHT22;7827;53.594;9.938;2024-01-25T06:07:47;7.20;99.90
15452;DHT22;7827;53.594;9.938;2024-01-25T06:10:18;7.20;99.90
15452;DHT22;7827;53.594;9.938;2024-01-25T06:12:46;7.20;99.90
15452;DHT22;7827;53.594;9.938;2024-01-25T06:15:14;7.30;99.90
15452;DHT22;7827;53.594;9.938;2024-01-25T06:17:43;7.20;99.90
15452;DHT22;7827;53.594;9.938;2024-01-25T06:20:11;7.20;99.90
15452;DHT22;7827;53.594;9.938;2024-01-25T06:22:40;7.20;99.90
15452;DHT22;7827;53.594;9.938;2024-01-25T06:25:10;7.20;99.90
15452;DHT22;7827;53.594;9.938;2024-01-25T06:27:38;7.20;99.90
15452;DHT22;7827;53.594;9.938;2024-01-25T06:30:07;7.20;99.90
15452;DHT22;7827;53.594;9.938;2024-01-25T06:32:36;7.20;99.90
15452;DHT22;7827;53.594;9.938;2024-01-25T06:35:05;7.20;99.90
15452;DHT22;7827;53.594;9.938;2024-01-25T06:37:34;7.20;99.90
15452;DHT22;7827;53.594;9.938;2024-01-25T06:40:02;7.20;99.90
15452;DHT22;7827;53.594;9.938;2024-01-25T06:42:33;7.20;99.90
15452;DHT22;7827;53.594;9.938;2024-01-25T06:45:02;7.20;99.90
15452;DHT22;7827;53.594;9.938;2024-01-25T06:47:31;7.20;99.90
15452;DHT22;7827;53.594;9.938;2024-01-25T06:50:00;7.20;99.90
15452;DHT22;7827;53.594;9.938;2024-01-25T06:52:29;7.20;99.90
15452;DHT22;7827;53.594;9.938;2024-01-25T06:54:58;7.20;99.90
15452;DHT22;7827;53.594;9.938;2024-01-25T06:57:27;7.20;99.90
15452;DHT22;7827;53.594;9.938;2024-01-25T06:59:57;7.20;99.90
15452;DHT22;7827;53.594;9.938;2024-01-25T07:02:26;7.20;99.90
15452;DHT22;7827;53.594;9.938;2024-01-25T07:04:54;7.20;99.90
15452;DHT22;7827;53.594;9.938;2024-01-25T07:07:23;7.10;99.90
15452;DHT22;7827;53.594;9.938;2024-01-25T07:09:51;7.10;99.90
15452;DHT22;7827;53.594;9.938;2024-01-25T07:12:20;7.10;99.90
15452;DHT22;7827;53.594;9.938;2024-01-25T07:14:48;7.10;99.90
15452;DHT22;7827;53.594;9.938;2024-01-25T07:17:18;7.10;99.90
15452;DHT22;7827;53.594;9.938;2024-01-25T07:19:46;7.20;99.90
15452;DHT22;7827;53.594;9.938;2024-01-25T07:22:14;7.20;99.90
15452;DHT22;7827;53.594;9.938;2024-01-25T07:24:44;7.20;99.90
15452;DHT22;7827;53.594;9.938;2024-01-25T07:27:13;7.20;99.90
15452;DHT22;7827;53.594;9.938;2024-01-25T07:29:43;7.40;99.90
15452;DHT22;7827;53.594;9.938;2024-01-25T07:32:13;7.40;99.90
15452;DHT22;7827;53.594;9.938;2024-01-25T07:34:42;7.50;99.90
15452;DHT22;7827;53.594;9.938;2024-01-25T07:37:10;7.50;99.90
15452;DHT22;7827;53.594;9.938;2024-01-25T07:39:39;7.60;99.90
15452;DHT22;7827;53.594;9.938;2024-01-25T07:42:07;7.60;99.90
15452;DHT22;7827;53.594;9.938;2024-01-25T07:44:36;7.60;23.60
15452;DHT22;7827;53.594;9.938;2024-01-25T07:47:04;7.60;93.00
15452;DHT22;7827;53.594;9.938;2024-01-25T07:49:33;7.60;73.30
15452;DHT22;7827;53.594;9.938;2024-01-25T07:52:03;7.60;1.00
15452;DHT22;7827;53.594;9.938;2024-01-25T07:54:32;7.60;99.90
15452;DHT22;7827;53.594;9.938;2024-01-25T07:57:00;7.60;52.60
15452;DHT22;7827;53.594;9.938;2024-01-25T07:59:28;7.60;1.00
15452;DHT22;7827;53.594;9.938;2024-01-25T08:01:56;7.60;2.10
15452;DHT22;7827;53.594;9.938;2024-01-25T08:04:25;7.50;1.00
15452;DHT22;7827;53.594;9.938;2024-01-25T08:06:53;7.40;1.00
15452;DHT22;7827;53.594;9.938;2024-01-25T08:09:23;7.30;99.90
15452;DHT22;7827;53.594;9.938;2024-01-25T08:11:51;7.30;99.90
15452;DHT22;7827;53.594;9.938;2024-01-25T08:14:20;7.30;99.90
15452;DHT22;7827;53.594;9.938;2024-01-25T08:16:48;7.20;99.90
15452;DHT22;7827;53.594;9.938;2024-01-25T08:19:16;7.20;99.90
15452;DHT22;7827;53.594;9.938;2024-01-25T08:21:46;7.20;99.90
15452;DHT22;7827;53.594;9.938;2024-01-25T08:24:14;7.20;99.90
15452;DHT22;7827;53.594;9.938;2024-01-25T08:26:43;7.20;99.90
15452;DHT22;7827;53.594;9.938;2024-01-25T08:29:12;7.20;99.90
15452;DHT22;7827;53.594;9.938;2024-01-25T08:31:40;7.20;99.90
15452;DHT22;7827;53.594;9.938;2024-01-25T08:34:08;7.20;99.90
15452;DHT22;7827;53.594;9.938;2024-01-25T08:36:37;7.20;99.90
15452;DHT22;7827;53.594;9.938;2024-01-25T08:39:05;7.20;99.90
15452;DHT22;7827;53.594;9.938;2024-01-25T08:41:36;7.20;99.90
15452;DHT22;7827;53.594;9.938;2024-01-25T08:44:08;7.20;99.90
15452;DHT22;7827;53.594;9.938;2024-01-25T08:46:36;7.20;99.90
15452;DHT22;7827;53.594;9.938;2024-01-25T08:49:05;7.20;99.90
15452;DHT22;7827;53.594;9.938;2024-01-25T08:51:36;7.20;99.90
15452;DHT22;7827;53.594;9.938;2024-01-25T08:54:04;7.30;99.90
15452;DHT22;7827;53.594;9.938;2024-01-25T08:56:32;7.30;99.90
15452;DHT22;7827;53.594;9.938;2024-01-25T08:59:01;7.30;99.90
15452;DHT22;7827;53.594;9.938;2024-01-25T09:01:31;7.30;99.90
15452;DHT22;7827;53.594;9.938;2024-01-25T09:03:59;7.30;99.90
15452;DHT22;7827;53.594;9.938;2024-01-25T09:06:30;7.40;99.90
15452;DHT22;7827;53.594;9.938;2024-01-25T09:08:59;7.30;99.90
15452;DHT22;7827;53.594;9.938;2024-01-25T09:11:27;7.30;99.90
15452;DHT22;7827;53.594;9.938;2024-01-25T09:13:55;7.20;99.90
15452;DHT22;7827;53.594;9.938;2024-01-25T09:16:23;7.20;1.00
15452;DHT22;7827;53.594;9.938;2024-01-25T09:18:53;7.30;1.00
15452;DHT22;7827;53.594;9.938;2024-01-25T09:21:22;7.30;1.00
15452;DHT22;7827;53.594;9.938;2024-01-25T09:23:50;7.30;1.00
15452;DHT22;7827;53.594;9.938;2024-01-25T09:26:18;7.40;99.90
15452;DHT22;7827;53.594;9.938;2024-01-25T09:28:46;7.30;99.90
15452;DHT22;7827;53.594;9.938;2024-01-25T09:31:15;7.30;99.90
15452;DHT22;7827;53.594;9.938;2024-01-25T09:33:43;7.40;99.90
15452;DHT22;7827;53.594;9.938;2024-01-25T09:36:13;7.30;99.90
15452;DHT22;7827;53.594;9.938;2024-01-25T09:38:42;7.30;99.90
15452;DHT22;7827;53.594;9.938;2024-01-25T09:41:10;7.30;99.90
15452;DHT22;7827;53.594;9.938;2024-01-25T09:43:38;7.30;99.90
15452;DHT22;7827;53.594;9.938;2024-01-25T09:46:11;7.40;99.90
15452;DHT22;7827;53.594;9.938;2024-01-25T09:48:42;7.30;99.90
15452;DHT22;7827;53.594;9.938;2024-01-25T09:51:17;7.30;99.90
15452;DHT22;7827;53.594;9.938;2024-01-25T09:53:49;7.30;99.90
15452;DHT22;7827;53.594;9.938;2024-01-25T09:56:20;7.40;99.90
15452;DHT22;7827;53.594;9.938;2024-01-25T09:58:50;7.40;99.90
15452;DHT22;7827;53.594;9.938;2024-01-25T10:01:19;7.50;99.90
15452;DHT22;7827;53.594;9.938;2024-01-25T10:03:48;7.50;99.90
15452;DHT22;7827;53.594;9.938;2024-01-25T10:06:18;7.50;99.90
15452;DHT22;7827;53.594;9.938;2024-01-25T10:08:47;7.50;99.90
15452;DHT22;7827;53.594;9.938;2024-01-25T10:11:17;7.40;99.90
15452;DHT22;7827;53.594;9.938;2024-01-25T10:13:47;7.40;99.90
15452;DHT22;7827;53.594;9.938;2024-01-25T10:16:18;7.50;99.90
15452;DHT22;7827;53.594;9.938;2024-01-25T10:18:47;7.50;99.90
15452;DHT22;7827;53.594;9.938;2024-01-25T10:21:19;7.50;99.90
15452;DHT22;7827;53.594;9.938;2024-01-25T10:23:48;7.50;99.90
15452;DHT22;7827;53.594;9.938;2024-01-25T10:26:18;7.50;99.90
15452;DHT22;7827;53.594;9.938;2024-01-25T10:28:53;7.60;99.90
15452;DHT22;7827;53.594;9.938;2024-01-25T10:31:29;7.60;99.90
15452;DHT22;7827;53.594;9.938;2024-01-25T10:33:59;7.60;99.90
15452;DHT22;7827;53.594;9.938;2024-01-25T10:36:30;7.60;99.90
15452;DHT22;7827;53.594;9.938;2024-01-25T10:39:00;7.60;99.90
15452;DHT22;7827;53.594;9.938;2024-01-25T10:41:31;7.70;99.90
15452;DHT22;7827;53.594;9.938;2024-01-25T10:44:01;7.60;99.90
15452;DHT22;7827;53.594;9.938;2024-01-25T10:46:31;7.60;99.90
15452;DHT22;7827;53.594;9.938;2024-01-25T10:49:00;7.60;99.90
15452;DHT22;7827;53.594;9.938;2024-01-25T10:51:31;7.70;99.90
15452;DHT22;7827;53.594;9.938;2024-01-25T10:54:00;7.70;99.90
15452;DHT22;7827;53.594;9.938;2024-01-25T10:56:29;7.70;98.60
15452;DHT22;7827;53.594;9.938;2024-01-25T10:58:59;7.80;18.50
15452;DHT22;7827;53.594;9.938;2024-01-25T11:01:29;7.80;99.90
15452;DHT22;7827;53.594;9.938;2024-01-25T11:03:58;7.80;30.70
15452;DHT22;7827;53.594;9.938;2024-01-25T11:06:28;7.80;1.00
15452;DHT22;7827;53.594;9.938;2024-01-25T11:09:05;7.70;1.00
15452;DHT22;7827;53.594;9.938;2024-01-25T11:11:35;7.70;99.90
15452;DHT22;7827;53.594;9.938;2024-01-25T11:14:04;7.80;89.90
15452;DHT22;7827;53.594;9.938;2024-01-25T11:16:32;7.80;45.80
15452;DHT22;7827;53.594;9.938;2024-01-25T11:19:01;7.80;1.00
15452;DHT22;7827;53.594;9.938;2024-01-25T11:21:40;7.90;94.20
15452;DHT22;7827;53.594;9.938;2024-01-25T11:24:13;7.90;1.00
15452;DHT22;7827;53.594;9.938;2024-01-25T11:26:43;7.90;1.00
15452;DHT22;7827;53.594;9.938;2024-01-25T11:29:13;7.80;5.00
15452;DHT22;7827;53.594;9.938;2024-01-25T11:31:43;7.80;8.40
15452;DHT22;7827;53.594;9.938;2024-01-25T11:34:12;7.80;1.00
15452;DHT22;7827;53.594;9.938;2024-01-25T11:36:42;7.80;1.00
15452;DHT22;7827;53.594;9.938;2024-01-25T11:39:13;7.80;1.00
15452;DHT22;7827;53.594;9.938;2024-01-25T11:41:43;7.80;1.00
15452;DHT22;7827;53.594;9.938;2024-01-25T11:44:12;7.90;1.00
15452;DHT22;7827;53.594;9.938;2024-01-25T11:46:41;7.90;1.00
15452;DHT22;7827;53.594;9.938;2024-01-25T11:49:10;7.90;1.00
15452;DHT22;7827;53.594;9.938;2024-01-25T11:51:38;7.90;1.00
15452;DHT22;7827;53.594;9.938;2024-01-25T11:54:06;7.90;1.00
15452;DHT22;7827;53.594;9.938;2024-01-25T11:56:38;7.80;1.00
15452;DHT22;7827;53.594;9.938;2024-01-25T11:59:10;7.80;1.00
15452;DHT22;7827;53.594;9.938;2024-01-25T12:01:39;7.90;1.00
15452;DHT22;7827;53.594;9.938;2024-01-25T12:04:09;7.90;1.00
15452;DHT22;7827;53.594;9.938;2024-01-25T12:06:38;7.90;1.00
15452;DHT22;7827;53.594;9.938;2024-01-25T12:09:08;7.90;1.00
15452;DHT22;7827;53.594;9.938;2024-01-25T12:11:40;7.80;1.00
15452;DHT22;7827;53.594;9.938;2024-01-25T12:14:09;7.80;1.00
15452;DHT22;7827;53.594;9.938;2024-01-25T12:16:37;7.90;1.00
15452;DHT22;7827;53.594;9.938;2024-01-25T12:19:06;7.90;1.00
15452;DHT22;7827;53.594;9.938;2024-01-25T12:21:35;8.00;1.00
15452;DHT22;7827;53.594;9.938;2024-01-25T12:24:06;8.00;1.00
15452;DHT22;7827;53.594;9.938;2024-01-25T12:26:35;7.90;1.00
15452;DHT22;7827;53.594;9.938;2024-01-25T12:29:05;7.80;1.00
15452;DHT22;7827;53.594;9.938;2024-01-25T12:31:35;7.80;1.00
15452;DHT22;7827;53.594;9.938;2024-01-25T12:34:03;7.80;99.90
15452;DHT22;7827;53.594;9.938;2024-01-25T12:36:41;7.80;1.00
15452;DHT22;7827;53.594;9.938;2024-01-25T12:39:10;7.80;1.00
15452;DHT22;7827;53.594;9.938;2024-01-25T12:41:42;7.70;1.00
15452;DHT22;7827;53.594;9.938;2024-01-25T12:44:12;7.70;1.00
15452;DHT22;7827;53.594;9.938;2024-01-25T12:46:40;7.80;1.00
15452;DHT22;7827;53.594;9.938;2024-01-25T12:49:09;7.80;99.90
15452;DHT22;7827;53.594;9.938;2024-01-25T12:51:37;7.80;99.90
15452;DHT22;7827;53.594;9.938;2024-01-25T12:54:06;7.70;1.00
15452;DHT22;7827;53.594;9.938;2024-01-25T12:56:36;7.80;1.00
15452;DHT22;7827;53.594;9.938;2024-01-25T12:59:04;7.80;1.00
15452;DHT22;7827;53.594;9.938;2024-01-25T13:01:34;7.80;1.00
15452;DHT22;7827;53.594;9.938;2024-01-25T13:04:03;7.80;99.90
15452;DHT22;7827;53.594;9.938;2024-01-25T13:06:32;7.90;99.90
15452;DHT22;7827;53.594;9.938;2024-01-25T13:09:00;8.00;99.90
15452;DHT22;7827;53.594;9.938;2024-01-25T13:11:30;8.00;99.90
15452;DHT22;7827;53.594;9.938;2024-01-25T13:13:58;8.00;99.90
15452;DHT22;7827;53.594;9.938;2024-01-25T13:16:27;8.00;1.00
15452;DHT22;7827;53.594;9.938;2024-01-25T13:18:56;8.00;1.00
15452;DHT22;7827;53.594;9.938;2024-01-25T13:21:25;8.00;79.70
15452;DHT22;7827;53.594;9.938;2024-01-25T13:23:53;8.00;1.00
15452;DHT22;7827;53.594;9.938;2024-01-25T13:26:22;8.00;99.90
15452;DHT22;7827;53.594;9.938;2024-01-25T13:28:50;8.00;99.90
15452;DHT22;7827;53.594;9.938;2024-01-25T13:31:19;8.00;99.90
15452;DHT22;7827;53.594;9.938;2024-01-25T13:33:47;8.00;99.90
15452;DHT22;7827;53.594;9.938;2024-01-25T13:36:16;8.00;99.90
15452;DHT22;7827;53.594;9.938;2024-01-25T13:38:45;8.00;99.90
15452;DHT22;7827;53.594;9.938;2024-01-25T13:41:13;8.10;99.90
15452;DHT22;7827;53.594;9.938;2024-01-25T13:43:41;8.10;99.90
15452;DHT22;7827;53.594;9.938;2024-01-25T13:46:09;8.10;99.90
15452;DHT22;7827;53.594;9.938;2024-01-25T13:48:38;8.10;99.90
15452;DHT22;7827;53.594;9.938;2024-01-25T13:51:06;8.10;99.90
15452;DHT22;7827;53.594;9.938;2024-01-25T13:53:36;8.20;99.90
15452;DHT22;7827;53.594;9.938;2024-01-25T13:56:04;8.20;99.90
15452;DHT22;7827;53.594;9.938;2024-01-25T13:58:33;8.30;99.90
15452;DHT22;7827;53.594;9.938;2024-01-25T14:01:01;8.30;99.90
15452;DHT22;7827;53.594;9.938;2024-01-25T14:03:29;8.30;99.90
15452;DHT22;7827;53.594;9.938;2024-01-25T14:05:58;8.30;99.90
15452;DHT22;7827;53.594;9.938;2024-01-25T14:08:31;8.30;99.90
15452;DHT22;7827;53.594;9.938;2024-01-25T14:11:01;8.30;99.90
15452;DHT22;7827;53.594;9.938;2024-01-25T14:13:29;8.40;99.90
15452;DHT22;7827;53.594;9.938;2024-01-25T14:15:57;8.50;99.90
15452;DHT22;7827;53.594;9.938;2024-01-25T14:18:27;8.60;1.00
15452;DHT22;7827;53.594;9.938;2024-01-25T14:20:56;8.60;1.00
15452;DHT22;7827;53.594;9.938;2024-01-25T14:23:24;8.60;1.00
15452;DHT22;7827;53.594;9.938;2024-01-25T14:25:53;8.60;1.00
15452;DHT22;7827;53.594;9.938;2024-01-25T14:28:22;8.60;1.00
15452;DHT22;7827;53.594;9.938;2024-01-25T14:30:51;8.70;1.00
15452;DHT22;7827;53.594;9.938;2024-01-25T14:33:20;8.70;99.90
15452;DHT22;7827;53.594;9.938;2024-01-25T14:35:49;8.70;2.90
15452;DHT22;7827;53.594;9.938;2024-01-25T14:38:17;8.70;72.30
15452;DHT22;7827;53.594;9.938;2024-01-25T14:40:45;8.70;1.00
15452;DHT22;7827;53.594;9.938;2024-01-25T14:43:26;8.70;99.90
15452;DHT22;7827;53.594;9.938;2024-01-25T14:45:54;8.60;99.90
15452;DHT22;7827;53.594;9.938;2024-01-25T14:48:23;8.60;1.00
15452;DHT22;7827;53.594;9.938;2024-01-25T14:50:51;8.60;99.90
15452;DHT22;7827;53.594;9.938;2024-01-25T14:53:19;8.60;99.90
15452;DHT22;7827;53.594;9.938;2024-01-25T14:55:47;8.60;99.90
15452;DHT22;7827;53.594;9.938;2024-01-25T14:58:15;8.40;99.90
15452;DHT22;7827;53.594;9.938;2024-01-25T15:00:51;8.40;1.00
15452;DHT22;7827;53.594;9.938;2024-01-25T15:03:20;8.30;99.90
15452;DHT22;7827;53.594;9.938;2024-01-25T15:05:48;8.30;1.00
15452;DHT22;7827;53.594;9.938;2024-01-25T15:08:17;8.20;1.00
15452;DHT22;7827;53.594;9.938;2024-01-25T15:10:45;8.20;1.00
15452;DHT22;7827;53.594;9.938;2024-01-25T15:13:13;8.20;1.00
15452;DHT22;7827;53.594;9.938;2024-01-25T15:15:41;8.20;1.00
15452;DHT22;7827;53.594;9.938;2024-01-25T15:18:12;8.20;99.00
15452;DHT22;7827;53.594;9.938;2024-01-25T15:20:41;8.20;73.50
15452;DHT22;7827;53.594;9.938;2024-01-25T15:23:09;8.20;1.00
15452;DHT22;7827;53.594;9.938;2024-01-25T15:25:38;8.20;99.90
15452;DHT22;7827;53.594;9.938;2024-01-25T15:28:06;8.20;1.00
15452;DHT22;7827;53.594;9.938;2024-01-25T15:30:34;8.10;1.00
15452;DHT22;7827;53.594;9.938;2024-01-25T15:33:03;8.10;19.10
15452;DHT22;7827;53.594;9.938;2024-01-25T15:35:34;8.10;99.90
15452;DHT22;7827;53.594;9.938;2024-01-25T15:38:02;8.10;99.90
15452;DHT22;7827;53.594;9.938;2024-01-25T15:40:32;8.10;99.90
15452;DHT22;7827;53.594;9.938;2024-01-25T15:43:01;8.10;99.90
15452;DHT22;7827;53.594;9.938;2024-01-25T15:45:29;8.00;99.90
15452;DHT22;7827;53.594;9.938;2024-01-25T15:47:58;8.00;1.00
15452;DHT22;7827;53.594;9.938;2024-01-25T15:50:26;8.00;1.00
15452;DHT22;7827;53.594;9.938;2024-01-25T15:52:55;7.90;1.00
15452;DHT22;7827;53.594;9.938;2024-01-25T15:55:24;7.80;1.00
15452;DHT22;7827;53.594;9.938;2024-01-25T15:57:52;7.70;1.00
15452;DHT22;7827;53.594;9.938;2024-01-25T16:00:20;7.70;1.00
15452;DHT22;7827;53.594;9.938;2024-01-25T16:02:49;7.70;11.80
15452;DHT22;7827;53.594;9.938;2024-01-25T16:05:18;7.70;25.20
15452;DHT22;7827;53.594;9.938;2024-01-25T16:07:46;7.70;99.90
15452;DHT22;7827;53.594;9.938;2024-01-25T16:10:18;7.70;18.80
15452;DHT22;7827;53.594;9.938;2024-01-25T16:12:47;7.70;1.00
15452;DHT22;7827;53.594;9.938;2024-01-25T16:15:17;7.70;1.00
15452;DHT22;7827;53.594;9.938;2024-01-25T16:17:46;7.70;1.00